createdAt,value
2023-03-25T00:00:43.771Z,76.00
2023-03-25T00:01:43.794Z,76.82
2023-03-25T00:02:43.766Z,75.59
2023-03-25T00:03:44.401Z,76.00
2023-03-25T00:04:43.753Z,74.60
2023-03-25T00:05:43.697Z,76.24
2023-03-25T00:06:43.692Z,74.98
2023-03-25T00:07:43.666Z,74.46
2023-03-25T00:08:43.669Z,72.41
2023-03-25T00:09:43.652Z,70.29
2023-03-25T00:10:43.884Z,68.03
2023-03-25T00:11:43.621Z,68.75
2023-03-25T00:12:43.617Z,64.64
2023-03-25T00:13:43.610Z,69.88
2023-03-25T00:14:43.597Z,67.72
2023-03-25T00:15:43.569Z,69.06
2023-03-25T00:16:43.584Z,67.00
2023-03-25T00:17:43.566Z,63.00
2023-03-25T00:18:43.531Z,62.90
2023-03-25T00:19:43.532Z,60.88
2023-03-25T00:20:44.158Z,60.54
2023-03-25T00:21:44.156Z,58.62
2023-03-25T00:22:43.469Z,56.87
2023-03-25T00:23:43.454Z,55.33
2023-03-25T00:24:42.804Z,56.46
2023-03-25T00:25:43.440Z,58.92
2023-03-25T00:26:43.424Z,58.34
2023-03-25T00:27:43.378Z,59.57
2023-03-25T00:28:42.668Z,54.85
2023-03-25T00:29:43.382Z,53.72
2023-03-25T00:30:43.375Z,57.62
2023-03-25T00:31:43.354Z,52.89
2023-03-25T00:32:43.122Z,51.48
2023-03-25T00:33:43.138Z,59.91
2023-03-25T00:34:43.319Z,53.94
2023-03-25T00:35:43.188Z,54.49
2023-03-25T00:36:43.276Z,53.97
2023-03-25T00:37:43.257Z,49.76
2023-03-25T00:38:43.779Z,51.30
2023-03-25T00:39:43.156Z,56.87
2023-03-25T00:40:42.983Z,52.14
2023-03-25T00:41:43.138Z,54.13
2023-03-25T00:42:43.176Z,53.81
2023-03-25T00:43:43.202Z,50.54
2023-03-25T00:44:43.157Z,52.50
2023-03-25T00:45:43.887Z,47.05
2023-03-25T00:46:43.906Z,53.33
2023-03-25T00:47:43.161Z,47.77
2023-03-25T00:48:43.838Z,46.45
2023-03-25T00:49:43.835Z,46.22
2023-03-25T00:50:43.814Z,49.33
2023-03-25T00:51:52.261Z,44.08
2023-03-25T00:52:44.058Z,51.29
2023-03-25T00:53:43.769Z,48.92
2023-03-25T00:54:43.781Z,51.91
2023-03-25T00:55:43.760Z,46.14
2023-03-25T00:56:43.787Z,47.58
2023-03-25T00:57:42.976Z,44.80
2023-03-25T00:58:43.736Z,44.18
2023-03-25T00:59:43.691Z,43.57
2023-03-25T01:00:43.680Z,43.67
2023-03-25T01:01:43.718Z,49.33
2023-03-25T01:02:43.795Z,46.76
2023-03-25T01:03:42.981Z,47.79
2023-03-25T01:04:43.170Z,44.80
2023-03-25T01:05:42.891Z,48.30
2023-03-25T01:06:42.873Z,46.55
2023-03-25T01:07:42.873Z,42.22
2023-03-25T01:08:43.530Z,43.87
2023-03-25T01:09:42.885Z,42.85
2023-03-25T01:10:42.837Z,43.26
2023-03-25T01:11:43.494Z,43.87
2023-03-25T01:12:42.783Z,44.72
2023-03-25T01:13:42.801Z,44.18
2023-03-25T01:14:42.764Z,46.47
2023-03-25T01:15:43.488Z,48.74
2023-03-25T01:16:42.748Z,50.38
2023-03-25T01:17:42.718Z,49.95
2023-03-25T01:18:42.740Z,46.04
2023-03-25T01:19:42.710Z,47.38
2023-03-25T01:20:42.691Z,45.94
2023-03-25T01:21:42.683Z,50.08
2023-03-25T01:22:43.342Z,48.02
2023-03-25T01:23:42.643Z,48.12
2023-03-25T01:24:42.642Z,49.25
2023-03-25T01:25:42.613Z,46.78
2023-03-25T01:26:43.270Z,46.37
2023-03-25T01:27:42.573Z,45.23
2023-03-25T01:28:42.576Z,45.03
2023-03-25T01:29:42.198Z,47.40
2023-03-25T01:30:42.569Z,50.78
2023-03-25T01:31:42.141Z,50.98
2023-03-25T01:32:42.540Z,50.36
2023-03-25T01:33:42.526Z,47.06
2023-03-25T01:34:42.493Z,47.99
2023-03-25T01:35:42.219Z,47.79
2023-03-25T01:36:42.207Z,50.16
2023-03-25T01:37:42.195Z,48.82
2023-03-25T01:38:42.444Z,55.30
2023-03-25T01:39:42.220Z,52.29
2023-03-25T01:40:42.207Z,50.24
2023-03-25T01:41:49.091Z,47.45
2023-03-25T01:42:43.375Z,53.02
2023-03-25T01:43:42.379Z,52.40
2023-03-25T01:44:41.649Z,57.54
2023-03-25T01:45:42.411Z,54.77
2023-03-25T01:46:42.344Z,56.21
2023-03-25T01:47:41.788Z,54.66
2023-03-25T01:48:42.316Z,55.80
2023-03-25T01:49:43.021Z,55.49
2023-03-25T01:50:42.301Z,55.69
2023-03-25T01:51:42.275Z,56.82
2023-03-25T01:52:41.929Z,58.37
2023-03-25T01:53:42.246Z,58.78
2023-03-25T01:54:42.005Z,57.75
2023-03-25T01:55:42.216Z,56.31
2023-03-25T01:56:42.231Z,55.59
2023-03-25T01:57:42.206Z,60.43
2023-03-25T01:58:42.192Z,58.47
2023-03-25T01:59:42.168Z,59.40
2023-03-25T02:00:42.195Z,56.10
2023-03-25T02:01:42.888Z,63.72
2023-03-25T02:02:42.136Z,59.50
2023-03-25T02:03:41.472Z,56.82
2023-03-25T02:04:42.096Z,61.25
2023-03-25T02:05:42.758Z,61.87
2023-03-25T02:06:42.067Z,57.65
2023-03-25T02:07:43.138Z,56.62
2023-03-25T02:08:41.340Z,58.26
2023-03-25T02:09:42.030Z,53.94
2023-03-25T02:10:42.015Z,54.15
2023-03-25T02:11:42.001Z,55.07
2023-03-25T02:12:41.985Z,55.80
2023-03-25T02:13:41.948Z,54.15
2023-03-25T02:14:41.956Z,56.21
2023-03-25T02:15:41.962Z,57.24
2023-03-25T02:16:41.198Z,56.10
2023-03-25T02:17:41.959Z,54.05
2023-03-25T02:18:41.901Z,52.61
2023-03-25T02:19:41.230Z,54.46
2023-03-25T02:20:41.874Z,58.98
2023-03-25T02:21:42.550Z,57.54
2023-03-25T02:22:41.847Z,56.41
2023-03-25T02:23:42.530Z,56.21
2023-03-25T02:24:41.869Z,57.34
2023-03-25T02:25:41.818Z,57.24
2023-03-25T02:26:41.822Z,57.24
2023-03-25T02:27:41.055Z,58.06
2023-03-25T02:28:41.757Z,61.98
2023-03-25T02:29:41.774Z,60.53
2023-03-25T02:30:41.747Z,62.05
2023-03-25T02:31:41.810Z,62.46
2023-03-25T02:32:41.018Z,59.17
2023-03-25T02:33:41.728Z,57.82
2023-03-25T02:34:42.371Z,58.86
2023-03-25T02:35:40.982Z,61.63
2023-03-25T02:36:41.668Z,62.77
2023-03-25T02:37:41.647Z,63.28
2023-03-25T02:38:41.665Z,58.24
2023-03-25T02:39:41.627Z,56.49
2023-03-25T02:40:41.608Z,56.70
2023-03-25T02:41:42.275Z,57.31
2023-03-25T02:42:41.590Z,61.33
2023-03-25T02:43:40.862Z,58.45
2023-03-25T02:44:41.578Z,62.15
2023-03-25T02:45:41.614Z,56.90
2023-03-25T02:46:41.541Z,55.98
2023-03-25T02:47:42.272Z,62.46
2023-03-25T02:48:41.482Z,60.71
2023-03-25T02:49:41.265Z,59.37
2023-03-25T02:50:41.267Z,59.78
2023-03-25T02:51:41.258Z,61.02
2023-03-25T02:52:41.466Z,61.12
2023-03-25T02:53:42.180Z,63.59
2023-03-25T02:54:41.266Z,61.02
2023-03-25T02:55:41.431Z,64.00
2023-03-25T02:56:40.691Z,63.07
2023-03-25T02:57:41.265Z,61.74
2023-03-25T02:58:41.368Z,60.09
2023-03-25T02:59:41.264Z,60.71
2023-03-25T03:00:41.340Z,59.78
2023-03-25T03:01:41.386Z,59.58
2023-03-25T03:02:41.346Z,60.30
2023-03-25T03:03:41.987Z,61.53
2023-03-25T03:04:41.291Z,61.22
2023-03-25T03:05:41.321Z,62.05
2023-03-25T03:06:41.258Z,60.61
2023-03-25T03:07:40.530Z,65.13
2023-03-25T03:08:41.218Z,66.85
2023-03-25T03:09:41.221Z,64.39
2023-03-25T03:10:41.228Z,65.34
2023-03-25T03:11:41.209Z,62.53
2023-03-25T03:12:41.181Z,60.17
2023-03-25T03:13:41.171Z,62.66
2023-03-25T03:14:41.151Z,63.25
2023-03-25T03:15:40.885Z,64.48
2023-03-25T03:16:41.183Z,61.91
2023-03-25T03:17:41.198Z,64.07
2023-03-25T03:18:41.078Z,65.65
2023-03-25T03:19:41.130Z,62.12
2023-03-25T03:20:41.798Z,62.12
2023-03-25T03:21:41.734Z,61.71
2023-03-25T03:22:41.058Z,64.79
2023-03-25T03:23:41.729Z,62.84
2023-03-25T03:24:41.034Z,64.07
2023-03-25T03:25:41.007Z,65.11
2023-03-25T03:26:41.034Z,60.99
2023-03-25T03:27:40.996Z,63.05
2023-03-25T03:28:40.251Z,59.96
2023-03-25T03:29:40.955Z,60.58
2023-03-25T03:30:40.962Z,58.01
2023-03-25T03:31:52.171Z,59.03
2023-03-25T03:32:41.996Z,56.57
2023-03-25T03:33:40.923Z,56.98
2023-03-25T03:34:41.556Z,59.34
2023-03-25T03:35:40.911Z,56.36
2023-03-25T03:36:41.526Z,59.14
2023-03-25T03:37:40.858Z,58.01
2023-03-25T03:38:41.074Z,59.03
2023-03-25T03:39:40.103Z,58.31
2023-03-25T03:40:40.799Z,64.90
2023-03-25T03:41:40.793Z,62.63
2023-03-25T03:42:40.785Z,59.24
2023-03-25T03:43:40.754Z,61.51
2023-03-25T03:44:40.309Z,61.71
2023-03-25T03:45:40.750Z,58.93
2023-03-25T03:46:40.778Z,56.05
2023-03-25T03:47:40.777Z,55.95
2023-03-25T03:48:40.696Z,51.63
2023-03-25T03:49:40.653Z,47.52
2023-03-25T03:50:40.132Z,50.91
2023-03-25T03:51:40.677Z,50.62
2023-03-25T03:52:40.195Z,51.34
2023-03-25T03:53:40.625Z,48.26
2023-03-25T03:54:40.599Z,47.54
2023-03-25T03:55:40.262Z,50.62
2023-03-25T03:56:40.617Z,51.86
2023-03-25T03:57:40.590Z,53.20
2023-03-25T03:58:40.311Z,47.23
2023-03-25T03:59:40.315Z,48.46
2023-03-25T04:00:39.816Z,46.51
2023-03-25T04:01:40.355Z,46.00
2023-03-25T04:02:40.539Z,47.33
2023-03-25T04:03:40.332Z,46.30
2023-03-25T04:04:40.449Z,42.60
2023-03-25T04:05:41.142Z,46.10
2023-03-25T04:06:40.317Z,43.01
2023-03-25T04:07:40.429Z,45.48
2023-03-25T04:08:40.314Z,46.20
2023-03-25T04:09:40.419Z,44.56
2023-03-25T04:10:40.408Z,43.42
2023-03-25T04:11:40.343Z,41.57
2023-03-25T04:12:40.372Z,43.84
2023-03-25T04:13:40.353Z,45.17
2023-03-25T04:14:40.334Z,44.45
2023-03-25T04:15:41.321Z,44.24
2023-03-25T04:16:40.344Z,45.89
2023-03-25T04:17:41.084Z,49.49
2023-03-25T04:18:40.511Z,48.67
2023-03-25T04:19:39.543Z,52.48
2023-03-25T04:20:40.259Z,48.05
2023-03-25T04:21:40.244Z,50.32
2023-03-25T04:22:39.522Z,48.67
2023-03-25T04:23:40.223Z,49.08
2023-03-25T04:24:40.203Z,46.82
2023-03-25T04:25:40.190Z,48.80
2023-03-25T04:26:40.177Z,46.63
2023-03-25T04:27:40.188Z,48.38
2023-03-25T04:28:40.150Z,48.90
2023-03-25T04:29:40.124Z,47.66
2023-03-25T04:30:40.145Z,49.00
2023-03-25T04:31:40.829Z,49.00
2023-03-25T04:32:40.846Z,47.87
2023-03-25T04:33:40.084Z,48.38
2023-03-25T04:34:40.761Z,45.61
2023-03-25T04:35:40.096Z,45.50
2023-03-25T04:36:40.047Z,43.13
2023-03-25T04:37:40.045Z,47.35
2023-03-25T04:38:40.023Z,44.98
2023-03-25T04:39:40.692Z,45.09
2023-03-25T04:40:39.993Z,46.94
2023-03-25T04:41:40.699Z,50.01
2023-03-25T04:42:39.970Z,50.32
2023-03-25T04:43:39.970Z,50.21
2023-03-25T04:44:39.912Z,49.80
2023-03-25T04:45:39.958Z,52.99
2023-03-25T04:46:39.964Z,49.49
2023-03-25T04:47:39.920Z,49.70
2023-03-25T04:48:39.884Z,50.52
2023-03-25T04:49:39.840Z,50.01
2023-03-25T04:50:39.857Z,50.52
2023-03-25T04:51:39.854Z,48.36
2023-03-25T04:52:39.847Z,47.95
2023-03-25T04:53:39.835Z,49.60
2023-03-25T04:54:39.784Z,50.73
2023-03-25T04:55:39.781Z,50.62
2023-03-25T04:56:40.474Z,52.48
2023-03-25T04:57:39.761Z,54.43
2023-03-25T04:58:39.981Z,50.32
2023-03-25T04:59:39.370Z,51.65
2023-03-25T05:00:39.726Z,50.21
2023-03-25T05:01:39.736Z,54.64
2023-03-25T05:02:39.737Z,52.89
2023-03-25T05:03:39.680Z,53.20
2023-03-25T05:04:39.653Z,55.46
2023-03-25T05:05:39.649Z,52.06
2023-03-25T05:06:39.643Z,62.35
2023-03-25T05:07:39.618Z,57.80
2023-03-25T05:08:39.608Z,57.50
2023-03-25T05:09:39.568Z,60.99
2023-03-25T05:10:38.979Z,55.85
2023-03-25T05:11:39.621Z,58.31
2023-03-25T05:12:39.016Z,56.77
2023-03-25T05:13:39.540Z,55.95
2023-03-25T05:14:39.108Z,56.18
2023-03-25T05:15:39.516Z,57.52
2023-03-25T05:16:40.215Z,55.77
2023-03-25T05:17:39.537Z,56.29
2023-03-25T05:18:39.236Z,58.14
2023-03-25T05:19:39.458Z,57.73
2023-03-25T05:20:39.294Z,56.70
2023-03-25T05:21:40.169Z,57.21
2023-03-25T05:22:39.383Z,60.47
2023-03-25T05:23:39.405Z,59.17
2023-03-25T05:24:40.389Z,58.86
2023-03-25T05:25:39.345Z,58.96
2023-03-25T05:26:38.811Z,59.34
2023-03-25T05:27:39.405Z,63.49
2023-03-25T05:28:39.364Z,58.93
2023-03-25T05:29:40.061Z,59.99
2023-03-25T05:30:40.059Z,61.53
2023-03-25T05:31:40.088Z,61.43
2023-03-25T05:32:39.286Z,58.34
2023-03-25T05:33:40.013Z,59.89
2023-03-25T05:34:39.983Z,61.63
2023-03-25T05:35:40.028Z,61.12
2023-03-25T05:36:39.953Z,62.35
2023-03-25T05:37:39.226Z,61.43
2023-03-25T05:38:39.925Z,61.30
2023-03-25T05:39:39.926Z,60.61
2023-03-25T05:40:39.915Z,58.34
2023-03-25T05:41:39.899Z,62.25
2023-03-25T05:42:39.159Z,61.84
2023-03-25T05:43:39.137Z,59.06
2023-03-25T05:44:39.116Z,60.81
2023-03-25T05:45:39.116Z,62.87
2023-03-25T05:46:39.095Z,64.39
2023-03-25T05:47:39.123Z,63.05
2023-03-25T05:48:39.100Z,65.20
2023-03-25T05:49:39.055Z,62.43
2023-03-25T05:50:39.022Z,63.97
2023-03-25T05:51:39.090Z,67.36
2023-03-25T05:52:39.014Z,63.76
2023-03-25T05:53:38.993Z,67.78
2023-03-25T05:54:38.998Z,65.00
2023-03-25T05:55:39.663Z,66.75
2023-03-25T05:56:39.004Z,66.13
2023-03-25T05:57:38.958Z,65.31
2023-03-25T05:58:38.932Z,65.83
2023-03-25T05:59:38.915Z,65.00
2023-03-25T06:00:38.878Z,66.34
2023-03-25T06:01:38.888Z,64.69
2023-03-25T06:02:39.003Z,65.11
2023-03-25T06:03:38.942Z,64.69
2023-03-25T06:04:38.846Z,62.63
2023-03-25T06:05:38.824Z,63.49
2023-03-25T06:06:39.062Z,61.61
2023-03-25T06:07:38.810Z,63.97
2023-03-25T06:08:39.469Z,64.79
2023-03-25T06:09:38.779Z,65.62
2023-03-25T06:10:38.749Z,65.20
2023-03-25T06:11:39.437Z,65.31
2023-03-25T06:12:38.743Z,65.31
2023-03-25T06:13:38.732Z,66.54
2023-03-25T06:14:38.730Z,63.64
2023-03-25T06:15:38.739Z,63.84
2023-03-25T06:16:38.687Z,62.81
2023-03-25T06:17:38.783Z,66.20
2023-03-25T06:18:38.422Z,66.89
2023-03-25T06:19:38.419Z,67.30
2023-03-25T06:20:38.424Z,68.43
2023-03-25T06:21:38.617Z,69.05
2023-03-25T06:22:39.288Z,68.74
2023-03-25T06:23:38.619Z,69.02
2023-03-25T06:24:38.631Z,67.27
2023-03-25T06:25:38.539Z,68.91
2023-03-25T06:26:38.556Z,73.02
2023-03-25T06:27:38.539Z,71.79
2023-03-25T06:28:39.204Z,71.69
2023-03-25T06:29:38.542Z,67.38
2023-03-25T06:30:38.481Z,70.53
2023-03-25T06:31:37.998Z,70.97
2023-03-25T06:32:38.528Z,70.87
2023-03-25T06:33:42.770Z,75.25
2023-03-25T06:34:39.461Z,70.53
2023-03-25T06:35:38.477Z,73.33
2023-03-25T06:36:38.424Z,71.59
2023-03-25T06:37:38.408Z,70.76
2023-03-25T06:38:38.401Z,75.49
2023-03-25T06:39:39.055Z,72.31
2023-03-25T06:40:38.341Z,71.45
2023-03-25T06:41:38.361Z,69.60
2023-03-25T06:42:39.014Z,72.48
2023-03-25T06:43:38.371Z,73.81
2023-03-25T06:44:38.307Z,69.60
2023-03-25T06:45:38.965Z,73.54
2023-03-25T06:46:39.077Z,73.50
2023-03-25T06:47:41.447Z,74.74
2023-03-25T06:48:38.248Z,77.17
2023-03-25T06:49:38.247Z,76.31
2023-03-25T06:50:38.245Z,76.92
2023-03-25T06:51:38.191Z,77.95
2023-03-25T06:52:38.198Z,76.92
2023-03-25T06:53:38.287Z,78.05
2023-03-25T06:54:38.177Z,77.81
2023-03-25T06:55:38.159Z,81.09
2023-03-25T06:56:38.221Z,78.25
2023-03-25T06:57:38.126Z,80.51
2023-03-25T06:58:38.147Z,75.49
2023-03-25T06:59:38.124Z,77.64
2023-03-25T07:00:38.090Z,75.08
2023-03-25T07:01:38.094Z,77.13
2023-03-25T07:02:38.159Z,77.13
2023-03-25T07:03:37.458Z,78.56
2023-03-25T07:04:38.047Z,76.99
2023-03-25T07:05:38.118Z,79.86
2023-03-25T07:06:37.302Z,81.64
2023-03-25T07:07:37.999Z,81.95
2023-03-25T07:08:37.991Z,80.99
2023-03-25T07:09:38.642Z,81.64
2023-03-25T07:10:37.952Z,82.32
2023-03-25T07:11:37.930Z,82.36
2023-03-25T07:12:37.937Z,82.42
2023-03-25T07:13:37.909Z,83.04
2023-03-25T07:14:37.916Z,83.20
2023-03-25T07:15:38.622Z,82.59
2023-03-25T07:16:38.072Z,84.06
2023-03-25T07:17:37.879Z,85.71
2023-03-25T07:18:37.852Z,86.46
2023-03-25T07:19:37.830Z,82.22
2023-03-25T07:20:37.822Z,82.42
2023-03-25T07:21:38.500Z,85.36
2023-03-25T07:22:37.063Z,86.14
2023-03-25T07:23:37.784Z,88.90
2023-03-25T07:24:37.779Z,87.71
2023-03-25T07:25:37.763Z,86.69
2023-03-25T07:26:38.476Z,86.38
2023-03-25T07:27:37.468Z,88.59
2023-03-25T07:28:37.472Z,93.73
2023-03-25T07:29:37.467Z,96.20
2023-03-25T07:30:37.519Z,97.80
2023-03-25T07:31:38.102Z,99.85
2023-03-25T07:32:38.388Z,99.39
2023-03-25T07:33:37.642Z,99.99
2023-03-25T07:34:37.639Z,99.99
2023-03-25T07:35:37.501Z,98.41
2023-03-25T07:36:37.477Z,98.10
2023-03-25T07:37:37.616Z,97.90
2023-03-25T07:38:37.485Z,96.42
2023-03-25T07:39:37.569Z,93.74
2023-03-25T07:40:37.573Z,92.50
2023-03-25T07:41:37.512Z,91.73
2023-03-25T07:42:37.529Z,93.16
2023-03-25T07:43:37.502Z,92.15
2023-03-25T07:44:38.488Z,94.34
2023-03-25T07:45:43.834Z,90.25
2023-03-25T07:46:38.192Z,89.84
2023-03-25T07:47:38.234Z,95.17
2023-03-25T07:48:38.158Z,87.84
2023-03-25T07:49:38.154Z,89.89
2023-03-25T07:50:38.137Z,87.79
2023-03-25T07:51:37.392Z,94.04
2023-03-25T07:52:38.105Z,89.27
2023-03-25T07:53:37.373Z,91.01
2023-03-25T07:54:38.076Z,92.34
2023-03-25T07:55:38.090Z,89.92
2023-03-25T07:56:37.347Z,88.39
2023-03-25T07:57:38.040Z,88.56
2023-03-25T07:58:38.032Z,89.51
2023-03-25T07:59:37.296Z,88.35
2023-03-25T08:00:37.298Z,88.90
2023-03-25T08:01:38.201Z,88.90
2023-03-25T08:02:37.340Z,88.90
2023-03-25T08:03:37.373Z,88.80
2023-03-25T08:04:37.896Z,90.95
2023-03-25T08:05:37.214Z,90.84
2023-03-25T08:06:37.193Z,90.13
2023-03-25T08:07:37.161Z,90.84
2023-03-25T08:08:37.167Z,89.21
2023-03-25T08:09:37.169Z,91.42
2023-03-25T08:10:37.145Z,91.83
2023-03-25T08:11:37.343Z,90.09
2023-03-25T08:12:37.096Z,90.36
2023-03-25T08:13:37.767Z,93.85
2023-03-25T08:14:37.080Z,96.58
2023-03-25T08:15:36.342Z,99.99
2023-03-25T08:16:37.149Z,99.99
2023-03-25T08:17:37.059Z,99.99
2023-03-25T08:18:37.040Z,99.99
2023-03-25T08:19:37.090Z,99.99
2023-03-25T08:20:36.998Z,99.99
2023-03-25T08:21:36.998Z,97.69
2023-03-25T08:22:37.708Z,93.28
2023-03-25T08:23:36.998Z,94.71
2023-03-25T08:24:36.952Z,94.24
2023-03-25T08:25:36.927Z,93.26
2023-03-25T08:26:36.914Z,91.93
2023-03-25T08:27:36.889Z,94.75
2023-03-25T08:28:36.886Z,93.01
2023-03-25T08:29:36.876Z,94.20
2023-03-25T08:30:36.871Z,95.41
2023-03-25T08:31:36.418Z,92.55
2023-03-25T08:32:36.816Z,92.14
2023-03-25T08:33:36.825Z,92.55
2023-03-25T08:34:36.149Z,95.10
2023-03-25T08:35:36.810Z,93.16
2023-03-25T08:36:36.786Z,92.03
2023-03-25T08:37:36.522Z,94.85
2023-03-25T08:38:36.526Z,93.16
2023-03-25T08:39:36.524Z,88.14
2023-03-25T08:40:36.531Z,93.28
2023-03-25T08:41:36.525Z,92.52
2023-03-25T08:42:36.533Z,97.98
2023-03-25T08:43:36.675Z,94.96
2023-03-25T08:44:36.667Z,95.10
2023-03-25T08:45:36.666Z,94.49
2023-03-25T08:46:37.379Z,96.14
2023-03-25T08:47:35.980Z,97.22
2023-03-25T08:48:36.616Z,97.06
2023-03-25T08:49:37.276Z,95.79
2023-03-25T08:50:36.027Z,96.97
2023-03-25T08:51:36.569Z,93.19
2023-03-25T08:52:36.538Z,98.40
2023-03-25T08:53:36.566Z,97.42
2023-03-25T08:54:37.269Z,97.12
2023-03-25T08:55:36.521Z,97.49
2023-03-25T08:56:36.554Z,97.94
2023-03-25T08:57:36.477Z,95.94
2023-03-25T08:58:36.482Z,96.61
2023-03-25T08:59:36.477Z,97.42
2023-03-25T09:00:36.446Z,98.81
2023-03-25T09:01:36.453Z,99.32
2023-03-25T09:02:36.439Z,99.99
2023-03-25T09:03:36.450Z,99.99
2023-03-25T09:04:36.409Z,92.04
2023-03-25T09:05:36.438Z,97.53
2023-03-25T09:06:47.780Z,99.99
2023-03-25T09:07:37.329Z,99.99
2023-03-25T09:08:36.364Z,99.99
2023-03-25T09:09:36.997Z,99.99
2023-03-25T09:10:38.137Z,99.99
2023-03-25T09:11:37.074Z,99.38
2023-03-25T09:12:36.261Z,99.64
2023-03-25T09:13:36.319Z,99.99
2023-03-25T09:14:36.268Z,99.66
2023-03-25T09:15:36.267Z,97.73
2023-03-25T09:16:36.237Z,85.96
2023-03-25T09:17:36.286Z,78.97
2023-03-25T09:18:36.228Z,68.94
2023-03-25T09:19:36.863Z,69.81
2023-03-25T09:20:36.179Z,73.02
2023-03-25T09:21:36.171Z,79.28
2023-03-25T09:22:36.124Z,84.66
2023-03-25T09:23:36.135Z,86.71
2023-03-25T09:24:36.122Z,94.78
2023-03-25T09:25:36.110Z,97.73
2023-03-25T09:26:36.091Z,97.78
2023-03-25T09:27:35.559Z,97.37
2023-03-25T09:28:36.069Z,98.02
2023-03-25T09:29:36.065Z,96.09
2023-03-25T09:30:36.036Z,92.19
2023-03-25T09:31:36.758Z,91.11
2023-03-25T09:32:36.037Z,94.43
2023-03-25T09:33:36.007Z,89.56
2023-03-25T09:34:35.982Z,86.65
2023-03-25T09:35:35.985Z,86.63
2023-03-25T09:36:35.967Z,93.19
2023-03-25T09:37:35.928Z,93.33
2023-03-25T09:38:35.939Z,94.92
2023-03-25T09:39:35.912Z,96.25
2023-03-25T09:40:35.898Z,96.92
2023-03-25T09:41:35.894Z,91.56
2023-03-25T09:42:35.848Z,92.22
2023-03-25T09:43:35.548Z,90.16
2023-03-25T09:44:35.854Z,77.83
2023-03-25T09:45:35.885Z,66.84
2023-03-25T09:46:35.612Z,61.52
2023-03-25T09:47:35.632Z,68.23
2023-03-25T09:48:35.582Z,77.12
2023-03-25T09:49:35.782Z,83.06
2023-03-25T09:50:35.593Z,79.29
2023-03-25T09:51:35.589Z,87.49
2023-03-25T09:52:35.741Z,80.41
2023-03-25T09:53:35.702Z,81.12
2023-03-25T09:54:35.708Z,87.45
2023-03-25T09:55:35.703Z,93.45
2023-03-25T09:56:37.439Z,95.28
2023-03-25T09:57:36.667Z,96.18
2023-03-25T09:58:35.593Z,96.89
2023-03-25T09:59:35.655Z,98.27
2023-03-25T10:00:35.720Z,99.90
2023-03-25T10:01:35.681Z,99.80
2023-03-25T10:02:35.738Z,99.55
2023-03-25T10:03:36.319Z,99.24
2023-03-25T10:04:35.570Z,99.99
2023-03-25T10:05:35.589Z,99.99
2023-03-25T10:06:35.570Z,99.99
2023-03-25T10:07:36.246Z,99.99
2023-03-25T10:08:36.258Z,99.99
2023-03-25T10:09:36.231Z,99.99
2023-03-25T10:10:36.231Z,99.99
2023-03-25T10:11:36.197Z,99.99
2023-03-25T10:12:36.194Z,97.94
2023-03-25T10:13:35.425Z,84.42
2023-03-25T10:14:35.460Z,81.62
2023-03-25T10:15:35.456Z,90.35
2023-03-25T10:16:36.151Z,88.50
2023-03-25T10:17:35.205Z,89.87
2023-03-25T10:18:36.124Z,96.30
2023-03-25T10:19:35.372Z,99.87
2023-03-25T10:20:35.402Z,99.41
2023-03-25T10:21:35.360Z,99.99
2023-03-25T10:22:36.004Z,99.99
2023-03-25T10:23:36.000Z,97.62
2023-03-25T10:24:35.302Z,99.99
2023-03-25T10:25:35.960Z,99.44
2023-03-25T10:26:35.273Z,99.34
2023-03-25T10:27:35.951Z,96.08
2023-03-25T10:28:35.244Z,93.22
2023-03-25T10:29:35.235Z,95.56
2023-03-25T10:30:35.235Z,89.59
2023-03-25T10:31:35.243Z,88.12
2023-03-25T10:32:35.892Z,83.80
2023-03-25T10:33:35.158Z,83.96
2023-03-25T10:34:36.155Z,78.94
2023-03-25T10:35:35.232Z,76.07
2023-03-25T10:36:35.129Z,78.56
2023-03-25T10:37:35.132Z,75.08
2023-03-25T10:38:35.787Z,75.76
2023-03-25T10:39:35.091Z,76.30
2023-03-25T10:40:35.089Z,94.02
2023-03-25T10:41:34.744Z,91.78
2023-03-25T10:42:35.730Z,95.10
2023-03-25T10:43:35.035Z,93.66
2023-03-25T10:44:35.021Z,98.02
2023-03-25T10:45:35.067Z,98.13
2023-03-25T10:46:35.024Z,99.99
2023-03-25T10:47:34.744Z,99.79
2023-03-25T10:48:34.761Z,94.58
2023-03-25T10:49:34.970Z,94.75
2023-03-25T10:50:34.945Z,81.41
2023-03-25T10:51:34.930Z,97.87
2023-03-25T10:52:34.930Z,95.97
2023-03-25T10:53:34.877Z,85.33
2023-03-25T10:54:34.640Z,84.63
2023-03-25T10:55:34.638Z,83.31
2023-03-25T10:56:34.697Z,93.52
2023-03-25T10:57:34.650Z,81.16
2023-03-25T10:58:34.646Z,73.39
2023-03-25T10:59:34.650Z,86.00
2023-03-25T11:00:34.653Z,86.45
2023-03-25T11:01:34.683Z,82.38
2023-03-25T11:02:34.759Z,98.09
2023-03-25T11:03:34.689Z,97.84
2023-03-25T11:04:35.485Z,88.20
2023-03-25T11:05:34.696Z,81.12
2023-03-25T11:06:34.731Z,71.97
2023-03-25T11:07:34.785Z,77.28
2023-03-25T11:08:34.679Z,87.93
2023-03-25T11:09:33.987Z,65.67
2023-03-25T11:10:34.010Z,63.25
2023-03-25T11:11:34.650Z,62.92
2023-03-25T11:12:42.904Z,61.11
2023-03-25T11:13:35.613Z,60.63
2023-03-25T11:14:34.642Z,56.02
2023-03-25T11:15:34.896Z,58.43
2023-03-25T11:16:34.619Z,63.30
2023-03-25T11:17:34.605Z,64.50
2023-03-25T11:18:33.882Z,63.91
2023-03-25T11:19:34.549Z,72.85
2023-03-25T11:20:34.537Z,75.29
2023-03-25T11:21:34.540Z,69.97
2023-03-25T11:22:34.537Z,77.26
2023-03-25T11:23:34.527Z,95.03
2023-03-25T11:24:34.458Z,99.99
2023-03-25T11:25:34.463Z,94.85
2023-03-25T11:26:33.899Z,95.86
2023-03-25T11:27:34.444Z,85.16
2023-03-25T11:28:34.419Z,83.93
2023-03-25T11:29:34.387Z,84.00
2023-03-25T11:30:34.407Z,85.75
2023-03-25T11:31:34.383Z,92.94
2023-03-25T11:32:34.397Z,93.89
2023-03-25T11:33:34.369Z,99.90
2023-03-25T11:34:33.639Z,98.94
2023-03-25T11:35:34.382Z,98.80
2023-03-25T11:36:34.334Z,97.78
2023-03-25T11:37:34.300Z,97.86
2023-03-25T11:38:34.340Z,99.43
2023-03-25T11:39:34.234Z,99.78
2023-03-25T11:40:34.251Z,99.57
2023-03-25T11:41:34.260Z,98.55
2023-03-25T11:42:33.534Z,99.99
2023-03-25T11:43:34.448Z,96.61
2023-03-25T11:44:34.185Z,96.61
2023-03-25T11:45:35.463Z,99.10
2023-03-25T11:46:34.860Z,99.91
2023-03-25T11:47:34.225Z,95.23
2023-03-25T11:48:34.135Z,99.99
2023-03-25T11:49:34.131Z,86.98
2023-03-25T11:50:33.397Z,65.36
2023-03-25T11:51:34.099Z,67.16
2023-03-25T11:52:34.087Z,67.26
2023-03-25T11:53:34.099Z,69.49
2023-03-25T11:54:34.044Z,63.62
2023-03-25T11:55:34.048Z,62.35
2023-03-25T11:56:34.753Z,59.34
2023-03-25T11:57:34.023Z,55.24
2023-03-25T11:58:33.272Z,56.00
2023-03-25T11:59:33.521Z,58.50
2023-03-25T12:00:34.218Z,54.16
2023-03-25T12:01:33.221Z,56.20
2023-03-25T12:02:34.067Z,50.90
2023-03-25T12:03:33.988Z,57.98
2023-03-25T12:04:33.597Z,54.91
2023-03-25T12:05:33.928Z,52.18
2023-03-25T12:06:33.224Z,57.40
2023-03-25T12:07:33.711Z,53.85
2023-03-25T12:08:33.874Z,58.17
2023-03-25T12:09:33.125Z,59.09
2023-03-25T12:10:33.849Z,62.52
2023-03-25T12:11:33.837Z,57.23
2023-03-25T12:12:33.702Z,57.41
2023-03-25T12:13:33.823Z,60.22
2023-03-25T12:14:33.728Z,55.30
2023-03-25T12:15:34.447Z,54.26
2023-03-25T12:16:33.799Z,56.74
2023-03-25T12:17:33.071Z,57.99
2023-03-25T12:18:33.731Z,56.34
2023-03-25T12:19:34.465Z,54.99
2023-03-25T12:20:33.146Z,56.26
2023-03-25T12:21:33.321Z,58.80
2023-03-25T12:22:33.017Z,55.78
2023-03-25T12:23:33.677Z,56.21
2023-03-25T12:24:34.385Z,57.56
2023-03-25T12:25:34.356Z,57.59
2023-03-25T12:26:33.633Z,59.50
2023-03-25T12:27:34.328Z,56.85
2023-03-25T12:28:33.609Z,57.26
2023-03-25T12:29:34.316Z,58.33
2023-03-25T12:30:34.298Z,54.57
2023-03-25T12:31:33.607Z,54.46
2023-03-25T12:32:34.296Z,52.74
2023-03-25T12:33:33.538Z,51.61
2023-03-25T12:34:33.499Z,48.60
2023-03-25T12:35:33.520Z,50.34
2023-03-25T12:36:33.487Z,52.59
2023-03-25T12:37:33.481Z,52.31
2023-03-25T12:38:32.714Z,53.06
2023-03-25T12:39:42.872Z,53.58
2023-03-25T12:40:34.434Z,53.27
2023-03-25T12:41:33.637Z,52.99
2023-03-25T12:42:33.456Z,53.27
2023-03-25T12:43:33.391Z,51.60
2023-03-25T12:44:33.353Z,49.48
2023-03-25T12:45:33.398Z,50.82
2023-03-25T12:46:33.349Z,49.88
2023-03-25T12:47:33.362Z,49.76
2023-03-25T12:48:33.338Z,46.20
2023-03-25T12:49:33.284Z,49.61
2023-03-25T12:50:35.363Z,46.53
2023-03-25T12:51:33.277Z,45.98
2023-03-25T12:52:33.260Z,46.07